Time;durP1;ratioP1;P1;durP2;ratioP2;P2;SDS_P1;SDS_P2;PMS_P1;PMS_P2;Temp;Humidity;BMP_temperature;BMP_pressure;BME280_temperature;BME280_humidity;BME280_pressure;Samples;Min_cycle;Max_cycle;Signal;HPM_P1;HPM_P2
2023/03/04 00:02:27;;;;;;;;;54.00;44.33;;;;;-0.67;96.49;98513.41;4801081;29;102302;-67
2023/03/04 00:04:53;;;;;;;;;19.00;7.67;;;;;-0.50;96.20;98520.78;4800035;29;102190;-68
2023/03/04 00:07:20;;;;;;;;;54.33;39.00;;;;;-0.57;96.12;98517.78;4802642;29;102102;-69
2023/03/04 00:09:47;;;;;;;;;55.67;43.67;;;;;-0.66;95.92;98499.16;4803303;29;104003;-68
2023/03/04 00:12:14;;;;;;;;;45.67;36.67;;;;;-0.81;96.65;98476.63;4801281;29;102254;-68
2023/03/04 00:14:41;;;;;;;;;44.33;36.00;;;;;-0.53;95.68;98516.53;4801663;29;102060;-68
2023/03/04 00:17:08;;;;;;;;;49.67;33.67;;;;;-0.56;96.02;98505.34;4804808;29;102214;-68
2023/03/04 00:19:35;;;;;;;;;36.33;25.33;;;;;-0.55;96.87;98507.91;4785378;29;104764;-67
2023/03/04 00:22:03;;;;;;;;;48.67;39.33;;;;;-0.53;96.18;98510.38;4803832;29;102255;-68
2023/03/04 00:24:30;;;;;;;;;55.67;43.67;;;;;-0.59;96.25;98501.16;4803973;29;102585;-67
2023/03/04 00:26:58;;;;;;;;;65.00;47.00;;;;;-0.62;96.34;98476.69;4803509;29;102432;-68
2023/03/04 00:29:25;;;;;;;;;35.33;26.33;;;;;-0.61;96.20;98470.41;4801994;29;104371;-68
2023/03/04 00:31:53;;;;;;;;;43.00;32.67;;;;;-0.44;95.62;98496.31;4804017;29;102310;-67
2023/03/04 00:34:20;;;;;;;;;33.33;22.67;;;;;-0.43;94.99;98475.91;4802972;29;102418;-67
2023/03/04 00:36:47;;;;;;;;;40.33;27.00;;;;;-0.41;95.20;98482.78;4804262;29;102060;-67
2023/03/04 00:39:15;;;;;;;;;42.00;33.00;;;;;-0.47;95.31;98484.16;4800606;29;103964;-68
2023/03/04 00:41:42;;;;;;;;;43.67;37.00;;;;;-0.47;96.09;98472.69;4802136;29;102751;-67
2023/03/04 00:44:09;;;;;;;;;32.00;29.33;;;;;-0.53;96.33;98476.72;4803233;28;102301;-67
2023/03/04 00:46:36;;;;;;;;;42.00;36.00;;;;;-0.58;95.78;98459.50;4788479;29;102362;-68
2023/03/04 00:49:03;;;;;;;;;36.00;29.00;;;;;-0.48;96.17;98471.84;4803417;29;104044;-68
2023/03/04 00:51:30;;;;;;;;;40.00;27.00;;;;;-0.47;96.15;98467.38;4803566;29;103969;-68
2023/03/04 00:53:57;;;;;;;;;52.00;40.33;;;;;-0.60;97.02;98469.44;4803969;29;101989;-68
2023/03/04 00:56:26;;;;;;;;;51.00;37.33;;;;;-0.50;96.17;98462.34;4789678;29;102039;-68
2023/03/04 00:58:54;;;;;;;;;51.00;37.33;;;;;-0.60;97.05;98448.19;4803101;29;104289;-68
2023/03/04 01:01:21;;;;;;;;;40.00;32.00;;;;;-0.50;96.70;98436.63;4801998;29;102138;-68
2023/03/04 01:03:49;;;;;;;;;37.33;27.00;;;;;-0.50;96.27;98418.03;4804643;29;102378;-67
2023/03/04 01:06:16;;;;;;;;;31.67;26.33;;;;;-0.45;95.87;98433.53;4804543;29;102531;-67
2023/03/04 01:08:43;;;;;;;;;24.33;18.33;;;;;-0.43;95.00;98420.97;4802358;29;104033;-68
2023/03/04 01:11:11;;;;;;;;;47.33;37.67;;;;;-0.51;94.95;98424.31;4803258;29;102446;-67
2023/03/04 01:13:38;;;;;;;;;63.00;43.00;;;;;-0.69;95.94;98393.25;4803299;29;102351;-68
2023/03/04 01:16:06;;;;;;;;;62.00;42.00;;;;;-0.56;95.99;98415.94;4799276;29;102113;-68
2023/03/04 01:18:33;;;;;;;;;43.33;34.67;;;;;-0.48;96.57;98409.91;4801170;29;104025;-68
2023/03/04 01:21:00;;;;;;;;;41.33;32.00;;;;;-0.44;96.32;98403.34;4799872;29;105680;-68
2023/03/04 01:23:27;;;;;;;;;73.33;45.67;;;;;-0.55;96.05;98408.81;4803904;29;102063;-68
2023/03/04 01:25:54;;;;;;;;;58.67;44.00;;;;;-0.51;96.46;98392.47;4803547;29;102136;-68
2023/03/04 01:28:21;;;;;;;;;44.67;32.00;;;;;-0.45;96.25;98385.75;4802368;29;104045;-69
2023/03/04 01:30:48;;;;;;;;;61.00;47.33;;;;;-0.59;96.09;98383.50;4806838;29;102289;-68
2023/03/04 01:33:15;;;;;;;;;60.33;48.00;;;;;-0.61;96.65;98388.09;4802623;28;102190;-68
2023/03/04 01:35:42;;;;;;;;;59.33;47.00;;;;;-0.58;96.15;98380.69;4804102;29;102212;-68
2023/03/04 01:38:09;;;;;;;;;42.33;37.33;;;;;-0.55;95.78;98374.28;4801963;29;104142;-68
2023/03/04 01:40:37;;;;;;;;;58.00;44.00;;;;;-0.47;95.29;98385.06;4799176;29;102647;-68
2023/03/04 01:43:04;;;;;;;;;66.33;45.67;;;;;-0.51;95.17;98373.03;4816181;28;101926;-68
2023/03/04 01:45:33;;;;;;;;;52.00;41.00;;;;;-0.65;95.55;98352.19;4802749;29;102396;-68
2023/03/04 01:48:00;;;;;;;;;58.67;41.33;;;;;-0.53;95.90;98365.19;4802023;29;104247;-68
2023/03/04 01:50:32;;;;;;;;;60.67;41.33;;;;;-0.52;95.43;98361.56;4801915;29;102310;-68
2023/03/04 01:53:01;;;;;;;;;61.00;45.67;;;;;-0.52;95.53;98372.19;4802139;29;102536;-69
2023/03/04 01:55:29;;;;;;;;;54.00;44.00;;;;;-0.59;95.55;98372.88;4804305;29;102261;-66
2023/03/04 01:57:56;;;;;;;;;58.67;44.67;;;;;-0.63;95.34;98360.84;4803314;29;103987;-67
2023/03/04 02:00:31;;;;;;;;;51.00;41.00;;;;;-0.76;95.64;98354.94;4796990;29;103418;-67
2023/03/04 02:03:06;;;;;;;;;66.67;48.33;;;;;-0.83;96.92;98367.09;4798217;29;103082;-67
2023/03/04 02:05:36;;;;;;;;;62.33;46.00;;;;;-0.69;96.23;98362.25;4799823;29;102553;-68
2023/03/04 02:08:17;;;;;;;;;53.33;42.33;;;;;-0.85;95.81;98348.63;4804109;29;104043;-68
2023/03/04 02:11:00;;;;;;;;;61.67;41.33;;;;;-0.92;96.36;98335.09;4798565;29;102177;-68
2023/03/04 02:13:43;;;;;;;;;58.33;43.33;;;;;-0.70;95.34;98346.44;4800706;29;102391;-67
2023/03/04 02:16:36;;;;;;;;;45.33;36.00;;;;;-0.66;94.91;98351.34;4798429;29;102578;-68
2023/03/04 02:19:47;;;;;;;;;34.33;23.00;;;;;-0.60;94.95;98345.50;4800519;29;103142;-68
2023/03/04 02:22:28;;;;;;;;;50.33;32.33;;;;;-0.57;94.44;98342.53;4797299;29;102267;-69
2023/03/04 02:25:20;;;;;;;;;42.33;30.00;;;;;-0.60;94.89;98324.25;4802454;29;102459;-68
2023/03/04 02:27:47;;;;;;;;;51.33;39.67;;;;;-0.58;94.45;98332.06;4800463;29;102386;-68
2023/03/04 02:30:15;;;;;;;;;46.33;38.00;;;;;-0.63;94.90;98329.00;4801941;29;104027;-67
2023/03/04 02:32:42;;;;;;;;;47.67;39.00;;;;;-0.76;95.24;98323.94;4802420;29;102312;-67
2023/03/04 02:35:16;;;;;;;;;46.00;39.67;;;;;-0.74;95.06;98321.16;4799233;29;102405;-67
2023/03/04 02:37:44;;;;;;;;;42.00;32.00;;;;;-0.65;94.66;98320.31;4803243;29;102450;-67
2023/03/04 02:40:22;;;;;;;;;47.00;35.67;;;;;-0.70;94.24;98312.78;4801214;29;104100;-67
2023/03/04 02:42:49;;;;;;;;;49.33;38.67;;;;;-0.69;94.48;98305.66;4802436;29;102904;-67
2023/03/04 02:45:39;;;;;;;;;47.00;41.00;;;;;-0.70;95.56;98311.94;4802125;29;102629;-67
2023/03/04 02:48:07;;;;;;;;;49.00;39.67;;;;;-0.69;95.73;98313.63;4800964;29;102511;-67
2023/03/04 02:50:39;;;;;;;;;38.00;34.33;;;;;-0.66;95.56;98313.31;4802460;29;104079;-67
2023/03/04 02:53:06;;;;;;;;;45.33;38.00;;;;;-0.67;94.46;98301.88;4801876;29;102192;-67
2023/03/04 02:55:33;;;;;;;;;50.33;38.00;;;;;-0.78;95.62;98295.84;4795791;29;102057;-67
2023/03/04 02:58:00;;;;;;;;;46.33;38.33;;;;;-0.90;96.49;98303.09;4802044;29;101903;-67
2023/03/04 03:00:28;;;;;;;;;45.67;40.67;;;;;-0.88;95.88;98302.97;4799369;29;104020;-67
2023/03/04 03:02:58;;;;;;;;;49.67;38.00;;;;;-0.85;96.50;98297.38;4800666;29;102438;-67
2023/03/04 03:05:26;;;;;;;;;57.67;42.00;;;;;-0.82;95.23;98290.00;4801092;29;102239;-68
2023/03/04 03:07:54;;;;;;;;;44.67;37.33;;;;;-0.76;95.16;98285.94;4802230;29;102455;-67
2023/03/04 03:10:21;;;;;;;;;46.33;36.33;;;;;-0.78;95.50;98287.91;4803466;29;104020;-67
2023/03/04 03:12:48;;;;;;;;;44.67;37.00;;;;;-0.70;95.21;98280.06;4802866;29;102984;-67
2023/03/04 03:15:15;;;;;;;;;62.67;43.67;;;;;-0.79;95.23;98294.16;4802106;29;102036;-67
2023/03/04 03:17:42;;;;;;;;;51.00;36.00;;;;;-0.87;95.20;98291.38;4801566;29;103696;-67
2023/03/04 03:20:11;;;;;;;;;50.67;33.67;;;;;-0.83;96.70;98298.06;4799064;28;103991;-67
2023/03/04 03:22:39;;;;;;;;;57.67;41.33;;;;;-0.91;96.86;98301.44;4800092;29;102170;-67
2023/03/04 03:25:07;;;;;;;;;45.67;37.67;;;;;-0.80;95.69;98292.50;4801844;29;101846;-67
2023/03/04 03:27:34;;;;;;;;;59.67;41.67;;;;;-0.87;95.53;98294.03;4801503;29;102289;-68
2023/03/04 03:30:02;;;;;;;;;55.00;44.00;;;;;-0.90;96.84;98290.66;4799312;29;103695;-67
2023/03/04 03:32:29;;;;;;;;;53.67;46.00;;;;;-0.90;95.47;98295.13;4799893;29;102249;-67
2023/03/04 03:34:56;;;;;;;;;58.00;41.67;;;;;-0.88;95.56;98292.34;4802215;29;106752;-67
2023/03/04 03:37:24;;;;;;;;;55.00;41.00;;;;;-0.89;96.67;98294.16;4803518;29;102394;-68
2023/03/04 03:39:51;;;;;;;;;57.67;43.67;;;;;-0.82;95.39;98284.69;4803807;29;104010;-67
2023/03/04 03:42:17;;;;;;;;;51.33;41.67;;;;;-0.85;95.36;98286.75;4801344;29;102126;-68
2023/03/04 03:44:45;;;;;;;;;46.00;41.00;;;;;-0.84;96.31;98289.28;4799481;29;102184;-68
2023/03/04 03:47:12;;;;;;;;;54.00;44.00;;;;;-0.93;95.57;98288.28;4802290;29;103878;-67
2023/03/04 03:49:39;;;;;;;;;66.33;44.67;;;;;-1.09;97.52;98280.03;4800730;29;103972;-67
2023/03/04 03:52:07;;;;;;;;;55.67;43.00;;;;;-1.05;96.85;98285.88;4800837;29;102430;-67
2023/03/04 03:54:34;;;;;;;;;40.00;30.67;;;;;-0.99;96.59;98280.06;4801727;29;102112;-67
2023/03/04 03:57:01;;;;;;;;;56.00;41.00;;;;;-0.98;97.20;98282.53;4802611;29;102485;-68
2023/03/04 03:59:28;;;;;;;;;57.67;44.33;;;;;-1.13;98.11;98285.75;4799408;29;103737;-67
2023/03/04 04:01:55;;;;;;;;;50.00;38.00;;;;;-1.00;98.28;98283.69;4801292;29;102488;-67
2023/03/04 04:04:22;;;;;;;;;48.67;40.00;;;;;-0.93;97.03;98292.75;4800810;29;102051;-68
2023/03/04 04:06:49;;;;;;;;;50.00;39.33;;;;;-0.94;96.52;98283.09;4803881;29;102776;-67
2023/03/04 04:09:16;;;;;;;;;54.67;38.67;;;;;-0.98;97.28;98292.31;4805204;29;103999;-67
2023/03/04 04:11:43;;;;;;;;;53.33;42.00;;;;;-1.02;96.43;98288.25;4800135;29;102233;-67
2023/03/04 04:14:13;;;;;;;;;41.67;34.33;;;;;-0.95;97.33;98277.00;4799291;29;103023;-67
2023/03/04 04:16:40;;;;;;;;;53.00;37.33;;;;;-0.98;96.96;98287.84;4797186;29;101928;-67
2023/03/04 04:19:15;;;;;;;;;57.67;43.67;;;;;-1.00;96.93;98273.91;4800612;29;104595;-67
2023/03/04 04:21:42;;;;;;;;;53.33;41.67;;;;;-1.10;97.92;98278.34;4798640;29;102105;-66
2023/03/04 04:24:09;;;;;;;;;61.33;45.33;;;;;-1.13;97.40;98283.94;4800802;29;102201;-67
2023/03/04 04:26:36;;;;;;;;;58.67;46.00;;;;;-1.11;98.79;98279.31;4799425;29;102087;-67
2023/03/04 04:29:03;;;;;;;;;69.67;49.67;;;;;-1.15;97.53;98274.41;4799063;29;104172;-67
2023/03/04 04:31:30;;;;;;;;;70.00;52.67;;;;;-1.24;97.98;98265.47;4800422;29;102254;-67
2023/03/04 04:33:57;;;;;;;;;71.33;50.00;;;;;-1.15;98.29;98275.25;4799995;29;102037;-68
2023/03/04 04:36:24;;;;;;;;;59.67;45.67;;;;;-1.11;99.16;98271.34;4799802;29;102065;-66
2023/03/04 04:38:51;;;;;;;;;71.50;52.25;;;;;-1.21;99.26;98272.28;4786601;29;104022;-67
2023/03/04 04:41:27;;;;;;;;;67.00;45.33;;;;;-1.20;99.95;98271.31;4798869;29;102176;-67
2023/03/04 04:43:54;;;;;;;;;62.00;46.67;;;;;-1.16;99.32;98264.78;4798049;29;102081;-67
2023/03/04 04:46:22;;;;;;;;;56.67;44.33;;;;;-1.17;99.18;98271.88;4804279;29;102354;-67
2023/03/04 04:48:49;;;;;;;;;56.67;40.00;;;;;-1.06;99.01;98271.78;4800721;29;108874;-67
2023/03/04 04:51:16;;;;;;;;;53.00;43.67;;;;;-1.02;98.73;98269.69;4799397;29;102092;-68
2023/03/04 04:53:43;;;;;;;;;70.00;52.25;;;;;-1.06;97.28;98274.44;4799709;29;102287;-68
2023/03/04 04:56:13;;;;;;;;;67.00;43.67;;;;;-1.10;98.22;98272.19;4801158;29;102270;-68
2023/03/04 04:58:39;;;;;;;;;75.75;54.00;;;;;-1.25;99.02;98263.78;4799137;29;104013;-68
2023/03/04 05:01:06;;;;;;;;;66.67;52.33;;;;;-1.12;98.67;98269.66;4802282;29;102557;-68
2023/03/04 05:03:35;;;;;;;;;65.67;48.67;;;;;-1.12;98.84;98272.31;4801795;29;102293;-67
2023/03/04 05:06:04;;;;;;;;;68.25;48.25;;;;;-1.15;98.69;98264.66;4803262;29;101917;-67
2023/03/04 05:08:31;;;;;;;;;80.50;57.50;;;;;-1.16;98.15;98267.41;4803649;29;105052;-67
2023/03/04 05:10:57;;;;;;;;;69.00;54.00;;;;;-1.22;98.25;98258.22;4803953;29;102299;-67
2023/03/04 05:13:24;;;;;;;;;70.25;49.75;;;;;-1.18;97.28;98253.47;4803369;29;101812;-68
2023/03/04 05:15:53;;;;;;;;;78.50;54.50;;;;;-1.22;98.66;98263.53;4797234;29;102151;-67
2023/03/04 05:18:22;;;;;;;;;77.75;56.00;;;;;-1.18;98.46;98242.88;4803836;29;109183;-68
2023/03/04 05:20:58;;;;;;;;;74.33;48.33;;;;;-1.08;98.10;98257.81;4802918;28;102238;-68
2023/03/04 05:23:27;;;;;;;;;49.33;42.00;;;;;-0.99;96.26;98254.31;4801951;29;101837;-68
2023/03/04 05:25:54;;;;;;;;;46.33;38.33;;;;;-0.96;96.20;98251.41;4806002;29;102313;-68
2023/03/04 05:28:21;;;;;;;;;49.33;40.33;;;;;-0.96;94.83;98251.41;4802992;29;103524;-68
2023/03/04 05:30:48;;;;;;;;;66.33;46.33;;;;;-1.09;93.65;98256.16;4804274;28;102514;-68
2023/03/04 05:33:17;;;;;;;;;53.67;40.33;;;;;-1.01;94.92;98256.31;4802211;29;102213;-68
2023/03/04 05:35:47;;;;;;;;;57.00;40.33;;;;;-1.08;93.77;98247.19;4805398;29;102064;-67
2023/03/04 05:38:16;;;;;;;;;54.67;41.00;;;;;-1.03;93.74;98247.63;4802509;29;104030;-67
2023/03/04 05:40:44;;;;;;;;;63.00;43.00;;;;;-1.03;94.33;98247.63;4802023;29;102524;-68
2023/03/04 05:43:11;;;;;;;;;46.33;38.00;;;;;-0.96;94.35;98243.47;4803136;29;102395;-67
2023/03/04 05:45:39;;;;;;;;;31.33;25.67;;;;;-0.86;94.19;98242.63;4802729;29;101965;-67
2023/03/04 05:48:07;;;;;;;;;36.67;30.67;;;;;-0.91;93.26;98245.72;4803019;29;104017;-67
2023/03/04 05:50:34;;;;;;;;;52.67;36.00;;;;;-0.93;92.38;98239.69;4803354;28;102494;-68
2023/03/04 05:53:01;;;;;;;;;54.33;43.33;;;;;-0.98;93.17;98234.78;4814386;29;102296;-68
2023/03/04 05:55:28;;;;;;;;;52.33;39.67;;;;;-0.92;92.28;98244.88;4803713;29;102074;-68
2023/03/04 05:57:56;;;;;;;;;46.00;34.67;;;;;-0.85;92.90;98239.81;4801510;29;104027;-68
2023/03/04 06:00:24;;;;;;;;;58.00;42.67;;;;;-0.94;91.83;98244.16;4803159;29;102538;-68
2023/03/04 06:02:51;;;;;;;;;60.33;48.33;;;;;-1.02;92.57;98246.66;4805961;29;102406;-68
2023/03/04 06:05:19;;;;;;;;;49.00;39.00;;;;;-0.90;92.90;98242.88;4803507;29;102056;-67
2023/03/04 06:07:46;;;;;;;;;42.33;38.67;;;;;-0.86;91.95;98242.63;4801407;29;104147;-67
2023/03/04 06:10:16;;;;;;;;;47.00;35.00;;;;;-0.86;91.54;98239.97;4799955;29;108980;-68
2023/03/04 06:12:43;;;;;;;;;56.33;41.33;;;;;-0.96;92.73;98238.16;4800086;28;102046;-68
2023/03/04 06:15:11;;;;;;;;;53.00;44.67;;;;;-0.99;92.63;98238.41;4801691;29;101947;-69
2023/03/04 06:17:40;;;;;;;;;69.67;51.33;;;;;-1.21;93.59;98249.25;4801097;29;104766;-67
2023/03/04 06:20:10;;;;;;;;;61.33;41.33;;;;;-1.29;93.38;98227.06;4799942;29;102386;-67
2023/03/04 06:22:37;;;;;;;;;58.00;40.33;;;;;-1.09;92.83;98226.13;4801934;29;101921;-67
2023/03/04 06:25:04;;;;;;;;;51.67;42.00;;;;;-0.98;93.04;98229.47;4803022;28;102377;-67
2023/03/04 06:27:31;;;;;;;;;47.00;35.00;;;;;-0.93;92.51;98219.28;4801629;29;104033;-68
2023/03/04 06:29:58;;;;;;;;;42.67;32.00;;;;;-0.84;92.71;98230.06;4802016;29;102223;-68
2023/03/04 06:32:28;;;;;;;;;40.00;31.33;;;;;-0.84;91.85;98235.34;4800706;29;102181;-68
2023/03/04 06:34:55;;;;;;;;;44.33;35.67;;;;;-0.85;90.88;98236.31;4804446;29;102045;-69
2023/03/04 06:37:22;;;;;;;;;60.67;43.00;;;;;-0.95;92.06;98233.69;4803373;29;103926;-68
2023/03/04 06:39:49;;;;;;;;;55.00;40.00;;;;;-0.80;91.55;98231.44;4802504;29;102448;-67
2023/03/04 06:42:16;;;;;;;;;47.33;38.00;;;;;-0.76;90.03;98244.28;4800047;29;102382;-68
2023/03/04 06:44:43;;;;;;;;;50.33;35.00;;;;;-0.74;90.28;98252.97;4802529;29;102191;-68
2023/03/04 06:47:10;;;;;;;;;39.67;34.33;;;;;-0.73;90.09;98259.97;4801558;29;103749;-68
2023/03/04 06:49:37;;;;;;;;;54.33;42.00;;;;;-0.81;91.16;98248.38;4802769;29;102310;-68
2023/03/04 06:52:04;;;;;;;;;68.33;47.00;;;;;-0.92;92.08;98266.09;4801275;28;101995;-68
2023/03/04 06:54:31;;;;;;;;;50.33;37.67;;;;;-0.84;92.56;98261.91;4802577;29;101985;-68
2023/03/04 06:56:58;;;;;;;;;71.33;45.67;;;;;-0.86;91.84;98261.22;4801682;28;104037;-67
2023/03/04 06:59:25;;;;;;;;;54.00;38.00;;;;;-0.78;91.52;98267.50;4800931;29;102269;-69
2023/03/04 07:01:52;;;;;;;;;51.67;39.00;;;;;-0.81;90.09;98272.25;4804276;29;102102;-67
2023/03/04 07:04:19;;;;;;;;;46.67;37.33;;;;;-0.79;90.13;98265.81;4803843;29;102267;-67
2023/03/04 07:06:46;;;;;;;;;57.33;45.00;;;;;-0.98;90.33;98276.41;4800089;29;103595;-68
2023/03/04 07:09:13;;;;;;;;;58.00;44.00;;;;;-0.96;91.85;98264.69;4800889;29;102249;-68
2023/03/04 07:11:40;;;;;;;;;56.67;37.67;;;;;-1.17;91.05;98242.72;4802370;29;102010;-68
2023/03/04 07:14:07;;;;;;;;;62.67;48.33;;;;;-0.86;91.44;98264.72;4803128;29;102977;-67
2023/03/04 07:16:34;;;;;;;;;68.33;48.33;;;;;-0.93;91.75;98271.53;4801431;29;103983;-67
2023/03/04 07:19:01;;;;;;;;;59.67;45.33;;;;;-0.93;92.57;98276.81;4801625;29;102103;-68
2023/03/04 07:21:28;;;;;;;;;49.33;41.00;;;;;-0.81;90.75;98266.94;4800254;29;102658;-67
2023/03/04 07:23:55;;;;;;;;;65.00;46.00;;;;;-0.96;90.56;98277.97;4800802;29;102214;-68
2023/03/04 07:26:22;;;;;;;;;60.00;46.33;;;;;-0.99;91.45;98275.56;4802281;29;104079;-67
2023/03/04 07:28:51;;;;;;;;;55.67;43.67;;;;;-1.00;91.62;98278.38;4801972;28;102110;-68
2023/03/04 07:31:28;;;;;;;;;51.33;40.00;;;;;-0.91;91.41;98283.69;4801660;29;102079;-68
2023/03/04 07:33:58;;;;;;;;;67.00;48.67;;;;;-0.86;91.08;98279.78;4800768;29;102320;-69
2023/03/04 07:36:25;;;;;;;;;68.67;47.67;;;;;-0.88;89.79;98287.03;4800502;28;103996;-69
2023/03/04 07:38:56;;;;;;;;;54.00;42.00;;;;;-0.79;89.63;98271.13;4803015;29;102503;-68
2023/03/04 07:41:25;;;;;;;;;46.33;39.00;;;;;-0.64;88.69;98284.84;4800709;29;102295;-68
2023/03/04 07:43:52;;;;;;;;;55.67;45.67;;;;;-0.69;89.10;98276.44;4803295;29;102097;-68
2023/03/04 07:46:19;;;;;;;;;64.00;45.33;;;;;-0.75;90.11;98283.16;4801220;29;108767;-68
2023/03/04 07:48:46;;;;;;;;;56.67;45.33;;;;;-0.67;89.15;98274.47;4801007;29;102309;-68
2023/03/04 07:51:19;;;;;;;;;50.00;40.00;;;;;-0.59;87.71;98277.31;4801249;29;102604;-68
2023/03/04 07:53:49;;;;;;;;;68.00;41.67;;;;;-0.57;88.18;98270.03;4803211;29;102386;-67
2023/03/04 07:56:18;;;;;;;;;53.33;44.33;;;;;-0.80;87.99;98239.41;4800954;29;103906;-68
2023/03/04 07:58:46;;;;;;;;;65.33;40.67;;;;;-0.56;88.25;98280.50;4801658;29;102395;-68
2023/03/04 08:01:15;;;;;;;;;45.67;38.00;;;;;-0.54;87.49;98280.38;4798386;29;101991;-69
2023/03/04 08:03:42;;;;;;;;;60.00;46.00;;;;;-0.64;87.34;98275.06;4802750;29;102337;-69
2023/03/04 08:06:13;;;;;;;;;56.00;41.33;;;;;-0.63;88.20;98286.53;4800913;29;104114;-68
2023/03/04 08:08:41;;;;;;;;;50.67;44.00;;;;;-0.65;86.93;98276.03;4804514;29;102737;-68
2023/03/04 08:11:12;;;;;;;;;65.33;43.33;;;;;-0.65;87.42;98280.50;4799133;29;102308;-68
2023/03/04 08:13:39;;;;;;;;;61.67;46.00;;;;;-0.68;87.18;98292.25;4802067;29;102384;-69
2023/03/04 08:16:07;;;;;;;;;49.00;41.67;;;;;-0.63;86.33;98297.16;4798992;29;104150;-67
2023/03/04 08:18:34;;;;;;;;;44.67;39.67;;;;;-0.61;85.82;98290.72;4799242;29;105502;-68
2023/03/04 08:21:01;;;;;;;;;61.33;45.00;;;;;-0.58;84.85;98290.41;4800951;29;102382;-67
2023/03/04 08:23:28;;;;;;;;;40.00;24.00;;;;;-0.65;85.40;98291.97;4801567;29;102072;-67
2023/03/04 08:25:54;;;;;;;;;55.67;41.00;;;;;-0.63;87.01;98302.44;4800278;29;104166;-68
2023/03/04 08:28:21;;;;;;;;;65.00;43.00;;;;;-0.70;85.91;98302.16;4803372;29;102715;-67
2023/03/04 08:30:53;;;;;;;;;41.33;39.33;;;;;-0.66;85.01;98297.41;4800670;29;102327;-67
2023/03/04 08:33:20;;;;;;;;;40.00;37.67;;;;;-0.69;85.07;98292.38;4803616;29;103721;-68
2023/03/04 08:35:47;;;;;;;;;54.33;41.00;;;;;-0.67;84.92;98295.72;4802837;29;103997;-68
2023/03/04 08:38:14;;;;;;;;;47.33;37.00;;;;;-0.50;84.77;98295.06;4801934;29;104093;-68
2023/03/04 08:40:41;;;;;;;;;48.33;36.00;;;;;-0.53;84.61;98297.97;4802953;29;102382;-67
2023/03/04 08:43:08;;;;;;;;;43.33;36.00;;;;;-0.43;83.65;98288.19;4804022;29;102087;-68
2023/03/04 08:45:35;;;;;;;;;39.33;32.00;;;;;-0.56;83.73;98284.97;4801271;29;104025;-67
2023/03/04 08:48:02;;;;;;;;;42.00;34.00;;;;;-0.55;84.25;98294.63;4804710;29;102210;-67
2023/03/04 08:50:29;;;;;;;;;46.33;33.00;;;;;-0.34;84.74;98292.66;4802821;29;104393;-67
2023/03/04 08:52:58;;;;;;;;;43.33;37.00;;;;;-0.38;83.77;98290.44;4802653;29;102064;-68
2023/03/04 08:55:25;;;;;;;;;44.33;36.67;;;;;-0.38;83.67;98291.28;4802230;29;104027;-69
2023/03/04 08:57:52;;;;;;;;;59.67;44.00;;;;;-0.47;84.19;98270.88;4806413;29;102865;-68
2023/03/04 09:00:20;;;;;;;;;46.33;41.33;;;;;-0.32;84.09;98282.75;4802460;29;102476;-69
2023/03/04 09:02:47;;;;;;;;;51.00;41.67;;;;;-0.28;83.02;98289.47;4802786;29;102340;-68
2023/03/04 09:05:14;;;;;;;;;51.67;41.33;;;;;-0.38;83.97;98291.28;4802013;29;103046;-69
2023/03/04 09:07:40;;;;;;;;;40.67;32.00;;;;;-0.22;83.90;98280.06;4803640;29;102322;-67
2023/03/04 09:10:08;;;;;;;;;39.33;33.67;;;;;-0.09;83.26;98276.13;4801869;29;102375;-67
2023/03/04 09:12:35;;;;;;;;;46.00;36.33;;;;;-0.06;82.60;98283.00;4805127;29;102050;-68
2023/03/04 09:15:04;;;;;;;;;35.33;29.33;;;;;0.02;82.78;98285.78;4803675;29;103982;-68
2023/03/04 09:17:39;;;;;;;;;48.67;33.00;;;;;0.09;82.41;98283.41;4802106;29;102780;-68
2023/03/04 09:20:09;;;;;;;;;43.67;36.33;;;;;0.04;82.61;98272.34;4803665;29;101838;-67
2023/03/04 09:22:40;;;;;;;;;46.00;32.00;;;;;0.00;82.33;98279.78;4804139;29;102161;-67
2023/03/04 09:25:07;;;;;;;;;47.33;37.67;;;;;0.00;82.82;98283.25;4801991;29;104125;-68
2023/03/04 09:27:39;;;;;;;;;38.67;31.00;;;;;0.02;83.43;98282.28;4802478;28;102324;-68
2023/03/04 09:30:07;;;;;;;;;48.67;37.33;;;;;0.05;82.96;98282.81;4801886;29;102123;-68
2023/03/04 09:32:34;;;;;;;;;41.00;34.67;;;;;0.03;82.61;98278.63;4801946;28;101972;-68
2023/03/04 09:35:01;;;;;;;;;30.67;26.00;;;;;0.16;82.57;98287.97;4801700;29;104222;-67
2023/03/04 09:37:28;;;;;;;;;44.00;36.67;;;;;0.11;82.85;98276.09;4801796;29;102377;-68
2023/03/04 09:39:55;;;;;;;;;48.00;39.00;;;;;-0.02;83.23;98277.25;4804427;29;102481;-69
2023/03/04 09:42:32;;;;;;;;;54.67;39.33;;;;;-0.14;83.55;98265.13;4805516;29;102247;-67
2023/03/04 09:45:00;;;;;;;;;50.00;31.67;;;;;0.09;84.04;98273.56;4799454;29;108541;-67
2023/03/04 09:47:28;;;;;;;;;48.00;40.00;;;;;0.00;83.68;98277.94;4801573;29;102461;-68
2023/03/04 09:50:00;;;;;;;;;54.00;41.00;;;;;-0.11;83.71;98256.84;4802961;29;102139;-68
2023/03/04 09:52:37;;;;;;;;;45.33;38.00;;;;;0.05;83.76;98274.84;4804281;29;102149;-67
2023/03/04 09:55:24;;;;;;;;;45.67;35.33;;;;;-0.02;82.98;98281.72;4801560;29;103927;-68
2023/03/04 09:58:02;;;;;;;;;57.67;45.00;;;;;-0.04;84.26;98273.03;4802918;29;102261;-68
2023/03/04 10:00:46;;;;;;;;;55.33;42.67;;;;;0.02;83.30;98277.78;4799362;29;101901;-67
2023/03/04 10:03:24;;;;;;;;;46.67;40.67;;;;;0.05;84.14;98274.84;4801986;29;101834;-67
2023/03/04 10:06:04;;;;;;;;;53.33;42.00;;;;;-0.03;84.13;98283.53;4801160;29;108664;-67
2023/03/04 10:08:49;;;;;;;;;58.00;40.67;;;;;-0.02;83.59;98279.91;4807590;29;102282;-69
2023/03/04 10:11:31;;;;;;;;;56.00;42.33;;;;;-0.15;84.13;98247.50;4803878;29;102378;-69
2023/03/04 10:14:02;;;;;;;;;58.00;42.67;;;;;0.05;83.98;98274.84;4798920;29;102553;-69
2023/03/04 10:16:40;;;;;;;;;53.67;40.00;;;;;-0.05;84.38;98253.63;4799379;29;104019;-67
2023/03/04 10:19:13;;;;;;;;;54.33;40.67;;;;;-0.11;84.82;98251.53;4801531;29;102569;-67
2023/03/04 10:21:48;;;;;;;;;53.67;40.67;;;;;0.02;84.89;98255.69;4803181;29;103569;-67
2023/03/04 10:24:21;;;;;;;;;49.67;38.00;;;;;0.07;85.25;98256.09;4801619;29;102029;-68
2023/03/04 10:27:01;;;;;;;;;50.67;41.00;;;;;-0.01;84.93;98251.53;4797597;29;104203;-68
2023/03/04 10:29:30;;;;;;;;;59.33;41.67;;;;;0.06;84.73;98255.25;4782771;29;102291;-67
2023/03/04 10:31:58;;;;;;;;;45.67;34.33;;;;;0.12;84.43;98244.06;4807360;29;102259;-68
2023/03/04 10:34:25;;;;;;;;;43.67;37.33;;;;;0.13;85.03;98236.94;4801867;29;104592;-69
2023/03/04 10:37:07;;;;;;;;;40.00;31.00;;;;;0.24;84.32;98247.38;4805031;29;104034;-67
2023/03/04 10:39:40;;;;;;;;;42.00;33.33;;;;;0.19;84.45;98231.84;4799963;29;102588;-68
2023/03/04 10:42:13;;;;;;;;;40.00;33.00;;;;;0.27;84.44;98239.13;4801759;29;101931;-68
2023/03/04 10:44:57;;;;;;;;;53.67;36.00;;;;;0.27;85.34;98239.13;4802638;29;101915;-68
2023/03/04 10:47:27;;;;;;;;;37.33;31.33;;;;;0.29;84.32;98230.00;4800152;29;108761;-67
2023/03/04 10:49:59;;;;;;;;;40.00;31.00;;;;;0.40;84.67;98223.69;4802158;29;102487;-68
2023/03/04 10:52:29;;;;;;;;;23.67;20.00;;;;;0.37;84.35;98224.78;4799707;29;101892;-68
2023/03/04 10:55:03;;;;;;;;;46.00;37.67;;;;;0.29;85.31;98215.88;4802356;29;102056;-68
2023/03/04 10:57:42;;;;;;;;;48.33;27.67;;;;;0.31;85.24;98219.25;4800686;29;109932;-68
2023/03/04 11:00:32;;;;;;;;;41.67;31.00;;;;;0.34;85.24;98214.47;4800481;29;102679;-68
2023/03/04 11:03:22;;;;;;;;;30.33;25.67;;;;;0.27;84.98;98215.19;4799344;29;102420;-68
2023/03/04 11:05:52;;;;;;;;;44.67;34.00;;;;;0.43;85.15;98196.78;4796051;29;102367;-67
2023/03/04 11:08:22;;;;;;;;;46.67;35.33;;;;;0.41;85.32;98169.50;4801481;29;103546;-67
2023/03/04 11:10:51;;;;;;;;;49.00;29.33;;;;;0.56;85.52;98191.97;4801707;29;102013;-67
2023/03/04 11:13:24;;;;;;;;;46.00;36.00;;;;;0.53;84.92;98194.91;4800429;29;102240;-67
2023/03/04 11:15:53;;;;;;;;;52.00;42.00;;;;;0.43;85.54;98199.44;4802154;29;102065;-67
2023/03/04 11:18:52;;;;;;;;;56.00;41.00;;;;;0.47;85.83;98194.66;4801257;29;108259;-67
2023/03/04 11:21:22;;;;;;;;;38.67;33.33;;;;;0.54;86.16;98193.91;4797682;29;102162;-68